Time;durP1;ratioP1;P1;durP2;ratioP2;P2;SDS_P1;SDS_P2;PMS_P1;PMS_P2;Temp;Humidity;BMP_temperature;BMP_pressure;BME280_temperature;BME280_humidity;BME280_pressure;Samples;Min_cycle;Max_cycle;Signal;HPM_P1;HPM_P2
2022/06/11 00:00:25;;;;;;;8.23;2.45;;;;;;;25.10;39.35;101758.28;5046084;27;96864;-81
2022/06/11 00:02:51;;;;;;;6.57;2.50;;;;;;;25.24;39.01;101755.34;5056005;27;98639;-81
2022/06/11 00:05:20;;;;;;;5.53;2.40;;;;;;;25.21;38.72;101752.88;5053064;27;99360;-81
2022/06/11 00:07:47;;;;;;;5.95;2.05;;;;;;;25.12;38.94;101749.09;5042360;27;97216;-81
2022/06/11 00:10:14;;;;;;;8.57;2.35;;;;;;;24.90;38.97;101749.06;5045910;27;96842;-83
2022/06/11 00:12:41;;;;;;;9.15;2.25;;;;;;;25.25;38.83;101748.94;5049977;27;98368;-84
2022/06/11 00:15:09;;;;;;;9.38;2.63;;;;;;;25.04;39.41;101756.94;5051111;27;98347;-83
2022/06/11 00:17:36;;;;;;;4.90;2.25;;;;;;;25.05;40.14;101758.69;5054784;27;96969;-84
2022/06/11 00:20:04;;;;;;;12.32;2.60;;;;;;;25.13;40.00;101748.09;5051552;27;97195;-84
2022/06/11 00:22:31;;;;;;;7.15;3.20;;;;;;;24.96;40.84;101756.69;5052032;27;98980;-85
2022/06/11 00:24:57;;;;;;;10.10;3.92;;;;;;;25.23;40.40;101759.88;5044863;27;96809;-82
2022/06/11 00:27:25;;;;;;;8.55;3.33;;;;;;;25.33;39.28;101752.75;5039146;27;96849;-81
2022/06/11 00:29:52;;;;;;;9.88;2.75;;;;;;;25.10;39.13;101759.16;5044424;27;96914;-79
2022/06/11 00:32:20;;;;;;;6.10;2.42;;;;;;;24.93;40.38;101752.41;5046989;27;98020;-82
2022/06/11 00:34:46;;;;;;;6.85;2.60;;;;;;;24.98;40.49;101750.19;5051556;27;102007;-80
2022/06/11 00:37:17;;;;;;;13.35;3.35;;;;;;;25.34;38.96;101754.44;5052680;27;96902;-80
2022/06/11 00:39:44;;;;;;;8.57;3.17;;;;;;;25.30;38.75;101752.13;5045643;27;96958;-81
2022/06/11 00:42:15;;;;;;;8.43;2.80;;;;;;;25.41;37.50;101752.09;5043895;27;98430;-83
2022/06/11 00:44:43;;;;;;;7.15;2.88;;;;;;;25.32;37.99;101755.59;5049352;27;98977;-82
2022/06/11 00:47:17;;;;;;;12.48;3.60;;;;;;;25.39;37.77;101756.81;5043112;27;96842;-83
2022/06/11 00:49:49;;;;;;;9.52;3.58;;;;;;;25.39;36.42;101748.69;5044849;27;96809;-83
2022/06/11 00:52:26;;;;;;;8.75;3.15;;;;;;;25.14;37.17;101757.91;5053984;27;101848;-82
2022/06/11 00:54:58;;;;;;;9.93;3.17;;;;;;;25.19;36.93;101749.44;5051132;27;98907;-81
2022/06/11 00:57:28;;;;;;;7.60;2.42;;;;;;;25.39;36.17;101751.41;5041079;27;96784;-83
2022/06/11 00:59:59;;;;;;;9.32;3.10;;;;;;;25.25;35.77;101746.25;5044526;27;96891;-82
2022/06/11 01:02:27;;;;;;;7.57;3.22;;;;;;;25.36;36.42;101740.81;5046596;27;98015;-82
2022/06/11 01:04:56;;;;;;;6.95;2.78;;;;;;;25.44;37.21;101742.88;5052886;27;98366;-83
2022/06/11 01:07:58;;;;;;;6.07;2.97;;;;;;;25.34;37.61;101737.34;5056131;27;97929;-81
2022/06/11 01:10:41;;;;;;;9.55;2.67;;;;;;;25.06;38.43;101738.78;5056452;27;97327;-81
2022/06/11 01:13:17;;;;;;;6.55;2.72;;;;;;;24.94;38.13;101747.88;5049069;27;98301;-82
2022/06/11 01:15:48;;;;;;;12.35;2.45;;;;;;;24.98;38.41;101746.63;5049417;27;98833;-83
2022/06/11 01:18:29;;;;;;;9.20;3.00;;;;;;;25.15;38.38;101737.13;5048356;27;97745;-82
2022/06/11 01:21:05;;;;;;;10.70;3.35;;;;;;;25.18;37.81;101736.91;5054226;27;96841;-82
2022/06/11 01:24:03;;;;;;;9.68;2.72;;;;;;;25.30;36.59;101730.50;5046822;27;99184;-83
2022/06/11 01:26:55;;;;;;;5.68;2.65;;;;;;;25.19;35.90;101728.69;5047141;27;99148;-83
2022/06/11 01:29:41;;;;;;;8.48;2.60;;;;;;;25.19;36.22;101725.97;5054524;27;96660;-82
2022/06/11 01:32:15;;;;;;;7.47;2.83;;;;;;;24.79;37.11;101725.59;5045554;27;97425;-82
2022/06/11 01:34:48;;;;;;;6.63;2.22;;;;;;;24.91;36.87;101730.03;5049601;27;101857;-82
2022/06/11 01:37:19;;;;;;;8.57;2.85;;;;;;;24.41;38.22;101723.22;5053924;27;100973;-82
2022/06/11 01:39:51;;;;;;;6.70;2.78;;;;;;;24.66;38.19;101716.72;5040748;27;96719;-82
2022/06/11 01:42:23;;;;;;;5.47;2.65;;;;;;;24.51;39.02;101716.09;5042795;27;96794;-83
2022/06/11 01:45:03;;;;;;;6.07;2.95;;;;;;;24.50;39.08;101718.91;5048864;27;99156;-79
2022/06/11 01:47:31;;;;;;;9.95;3.20;;;;;;;24.51;38.84;101717.94;5044350;27;97667;-80
2022/06/11 01:49:58;;;;;;;8.73;3.42;;;;;;;24.40;40.08;101723.31;5055328;27;96853;-83
2022/06/11 01:52:54;;;;;;;5.97;2.55;;;;;;;24.15;41.87;101724.34;5046727;27;96866;-82
2022/06/11 01:55:35;;;;;;;6.13;2.72;;;;;;;24.27;41.12;101725.25;5046546;27;100744;-81
2022/06/11 01:58:19;;;;;;;13.50;3.08;;;;;;;24.31;39.96;101729.44;5054368;27;98446;-81
2022/06/11 02:00:57;;;;;;;7.30;2.70;;;;;;;24.61;38.16;101727.88;5043044;27;97332;-82
2022/06/11 02:03:34;;;;;;;7.05;2.55;;;;;;;24.53;37.43;101726.78;5038835;27;96894;-81
2022/06/11 02:06:38;;;;;;;9.52;3.03;;;;;;;24.30;39.08;101733.09;5040771;27;101835;-80
2022/06/11 02:09:17;;;;;;;7.95;3.35;;;;;;;24.50;38.48;101724.31;5042291;27;99326;-80
2022/06/11 02:11:47;;;;;;;3.35;2.15;;;;;;;24.61;38.04;101732.47;5047166;27;96691;-81
2022/06/11 02:14:23;;;;;;;7.30;2.90;;;;;;;24.50;38.32;101725.19;5046632;27;96877;-81
2022/06/11 02:16:55;;;;;;;8.27;2.97;;;;;;;24.73;37.93;101726.06;5050454;27;97611;-82
2022/06/11 02:19:25;;;;;;;10.00;3.17;;;;;;;24.52;38.38;101725.94;5053130;27;99520;-82
2022/06/11 02:21:57;;;;;;;5.70;2.95;;;;;;;24.52;38.38;101733.16;5045556;27;96777;-81
2022/06/11 02:24:29;;;;;;;8.48;2.80;;;;;;;24.45;38.49;101731.94;5050609;27;99474;-82
2022/06/11 02:27:03;;;;;;;11.55;2.78;;;;;;;24.49;38.48;101734.25;5046105;27;99488;-82
2022/06/11 02:29:32;;;;;;;8.98;2.75;;;;;;;24.45;37.96;101732.78;5041873;27;97788;-81
2022/06/11 02:32:06;;;;;;;10.75;3.00;;;;;;;24.45;38.65;101729.22;5043418;27;97176;-81
2022/06/11 02:34:37;;;;;;;8.60;2.80;;;;;;;24.48;39.04;101732.53;5048677;27;97193;-83
2022/06/11 02:37:10;;;;;;;5.00;2.67;;;;;;;24.25;39.26;101729.91;5050885;27;99314;-82
2022/06/11 02:39:42;;;;;;;8.18;3.10;;;;;;;24.36;39.23;101738.03;5040282;27;97994;-80
2022/06/11 02:42:12;;;;;;;6.32;3.05;;;;;;;24.55;38.68;101732.91;5038476;27;96731;-81
2022/06/11 02:44:39;;;;;;;4.75;2.47;;;;;;;24.24;38.98;101734.44;5045069;27;96832;-81
2022/06/11 02:47:07;;;;;;;9.05;3.22;;;;;;;23.90;40.62;101735.25;5054353;27;99516;-81
2022/06/11 02:49:36;;;;;;;5.97;2.95;;;;;;;24.09;39.92;101736.44;5049832;27;98813;-80
2022/06/11 02:52:07;;;;;;;4.85;2.60;;;;;;;24.07;40.22;101730.31;5047233;27;96732;-79
2022/06/11 02:54:34;;;;;;;8.10;3.08;;;;;;;24.29;39.89;101737.66;5048616;27;96813;-80
2022/06/11 02:57:05;;;;;;;6.03;2.85;;;;;;;24.28;40.36;101732.38;5058204;27;98199;-80
2022/06/11 02:59:31;;;;;;;5.78;2.67;;;;;;;24.14;40.60;101738.81;5036601;27;98815;-80
2022/06/11 03:01:58;;;;;;;6.00;2.78;;;;;;;;;;5042968;27;99206;-82
2022/06/11 03:04:29;;;;;;;7.85;3.00;;;;;;;24.15;40.68;101740.53;5057178;27;97702;-80
2022/06/11 03:06:55;;;;;;;5.50;2.75;;;;;;;24.19;41.05;101745.63;5055367;27;98960;-81
2022/06/11 03:09:26;;;;;;;4.40;2.60;;;;;;;24.34;40.50;101746.28;5050822;27;97664;-81
2022/06/11 03:11:52;;;;;;;9.60;3.00;;;;;;;24.46;40.31;101747.16;5052219;27;96949;-80
2022/06/11 03:14:19;;;;;;;8.93;3.15;;;;;;;24.46;39.26;101749.84;5051751;27;96981;-81
2022/06/11 03:16:47;;;;;;;12.82;3.45;;;;;;;24.49;39.04;101747.75;5050794;27;99440;-81
2022/06/11 03:19:15;;;;;;;9.07;2.70;;;;;;;24.69;38.70;101746.19;5051601;27;97765;-82
2022/06/11 03:21:43;;;;;;;9.57;3.47;;;;;;;24.53;39.11;101746.56;5044554;27;96795;-81
2022/06/11 03:24:10;;;;;;;6.13;2.72;;;;;;;24.48;39.16;101748.75;5050940;27;96824;-82
2022/06/11 03:26:37;;;;;;;8.98;2.83;;;;;;;24.54;39.66;101756.41;5045698;27;97774;-81
2022/06/11 03:29:04;;;;;;;9.95;2.92;;;;;;;24.63;39.88;101746.69;5054442;27;97974;-82
2022/06/11 03:31:31;;;;;;;6.55;2.80;;;;;;;24.70;40.12;101757.88;5054278;27;96880;-77
2022/06/11 03:33:57;;;;;;;6.90;2.72;;;;;;;24.84;39.05;101755.81;5047571;27;96824;-76
2022/06/11 03:36:24;;;;;;;13.82;2.95;;;;;;;24.79;39.75;101752.63;5040701;27;99298;-77
2022/06/11 03:38:51;;;;;;;7.25;2.65;;;;;;;24.68;39.80;101749.88;5053714;27;98174;-78
2022/06/11 03:41:21;;;;;;;7.80;2.70;;;;;;;25.00;38.32;101756.34;5055912;27;96829;-81
2022/06/11 03:43:48;;;;;;;8.98;2.60;;;;;;;25.04;37.97;101756.94;5055097;27;98455;-82
2022/06/11 03:46:15;;;;;;;7.18;2.90;;;;;;;25.04;38.34;101762.34;5044570;27;98195;-81
2022/06/11 03:48:41;;;;;;;12.48;2.70;;;;;;;25.05;37.29;101761.38;5057967;27;98065;-81
2022/06/11 03:51:09;;;;;;;5.05;2.45;;;;;;;25.24;37.73;101753.50;5048474;27;96936;-79
2022/06/11 03:53:37;;;;;;;7.20;2.35;;;;;;;25.22;36.89;101743.78;5052342;27;98478;-79
2022/06/11 03:56:07;;;;;;;7.00;2.38;;;;;;;25.07;37.33;101755.84;5047979;27;99943;-80
2022/06/11 03:58:34;;;;;;;9.35;2.78;;;;;;;25.21;38.27;101752.88;5050414;27;101400;-81
2022/06/11 04:01:16;;;;;;;5.45;2.83;;;;;;;25.27;37.80;101749.69;5052714;27;96753;-80
2022/06/11 04:03:43;;;;;;;5.47;2.33;;;;;;;25.02;38.74;101765.19;5051121;27;96808;-80
2022/06/11 04:06:10;;;;;;;6.53;2.63;;;;;;;25.11;38.38;101769.00;5050740;27;98950;-81
2022/06/11 04:08:38;;;;;;;4.25;2.38;;;;;;;24.95;38.66;101769.34;5052237;27;97526;-81
2022/06/11 04:11:06;;;;;;;5.30;3.00;;;;;;;25.02;39.16;101764.31;5051396;27;97199;-82
2022/06/11 04:13:35;;;;;;;6.85;2.35;;;;;;;25.06;38.83;101764.94;5046467;27;96848;-80
2022/06/11 04:16:03;;;;;;;9.00;2.35;;;;;;;25.20;38.54;101767.41;5050859;27;98960;-80
2022/06/11 04:18:34;;;;;;;7.72;2.83;;;;;;;25.00;39.21;101760.91;5042308;27;97353;-80
2022/06/11 04:21:02;;;;;;;7.95;2.80;;;;;;;25.06;38.74;101764.94;5051651;27;96836;-81
2022/06/11 04:23:30;;;;;;;9.57;2.42;;;;;;;24.68;39.66;101766.09;5054275;27;96783;-82
2022/06/11 04:25:58;;;;;;;9.73;2.47;;;;;;;24.70;40.07;101769.53;5044564;27;98988;-82
2022/06/11 04:28:28;;;;;;;9.98;2.78;;;;;;;24.96;39.77;101771.06;5056052;27;98065;-81
2022/06/11 04:30:55;;;;;;;12.10;2.85;;;;;;;25.21;38.32;101763.69;5047942;27;96812;-81
2022/06/11 04:33:21;;;;;;;4.10;2.10;;;;;;;25.46;37.09;101770.69;5054456;27;98774;-81
2022/06/11 04:35:48;;;;;;;7.72;2.58;;;;;;;25.47;38.19;101769.72;5044885;27;99042;-82
2022/06/11 04:38:16;;;;;;;6.07;2.20;;;;;;;25.48;37.53;101766.84;5051191;27;99260;-79
2022/06/11 04:40:43;;;;;;;7.20;2.63;;;;;;;25.72;36.69;101769.44;5043072;27;96944;-76
2022/06/11 04:43:10;;;;;;;9.00;2.85;;;;;;;26.01;36.51;101764.25;5041819;27;97935;-78
2022/06/11 04:45:41;;;;;;;7.70;2.38;;;;;;;25.69;36.57;101765.13;5049530;27;101956;-78
2022/06/11 04:48:08;;;;;;;6.75;2.30;;;;;;;25.70;36.29;101769.56;5043277;27;100387;-80
2022/06/11 04:50:38;;;;;;;9.20;2.53;;;;;;;25.99;35.69;101769.81;5046159;27;96814;-81
2022/06/11 04:53:05;;;;;;;6.70;1.90;;;;;;;26.01;35.87;101767.84;5050433;27;96960;-80
2022/06/11 04:55:31;;;;;;;11.13;1.98;;;;;;;26.00;35.46;101774.25;5045921;27;99225;-80
2022/06/11 04:57:58;;;;;;;5.60;2.50;;;;;;;25.94;35.33;101769.34;5052695;27;98853;-82
2022/06/11 05:00:29;;;;;;;10.52;2.40;;;;;;;26.07;35.07;101769.16;5043682;27;96823;-80
2022/06/11 05:02:56;;;;;;;7.97;2.13;;;;;;;26.10;34.94;101772.50;5042902;27;98416;-81
2022/06/11 05:05:24;;;;;;;11.30;2.33;;;;;;;26.04;34.88;101764.03;5041591;27;100857;-77
2022/06/11 05:07:52;;;;;;;9.38;2.03;;;;;;;26.04;35.29;101769.44;5043134;27;99397;-76
2022/06/11 05:10:21;;;;;;;8.23;1.92;;;;;;;26.06;35.46;101768.31;5052498;27;96860;-76
2022/06/11 05:12:50;;;;;;;5.53;2.10;;;;;;;26.25;34.87;101777.63;5044631;27;96885;-81
2022/06/11 05:15:16;;;;;;;6.03;2.00;;;;;;;26.06;34.98;101767.44;5051025;27;98946;-80
2022/06/11 05:17:43;;;;;;;7.65;2.30;;;;;;;26.19;34.71;101779.81;5044193;27;98952;-81
2022/06/11 05:20:15;;;;;;;4.10;2.00;;;;;;;26.14;34.87;101781.19;5046744;27;96821;-77
2022/06/11 05:22:42;;;;;;;7.40;2.20;;;;;;;26.30;34.65;101786.22;5051886;27;96890;-77
2022/06/11 05:25:10;;;;;;;4.90;1.80;;;;;;;26.44;34.14;101789.47;5048310;27;99203;-77
2022/06/11 05:27:38;;;;;;;5.35;1.98;;;;;;;26.41;34.02;101788.84;5042284;27;99503;-77
2022/06/11 05:30:08;;;;;;;7.32;2.28;;;;;;;26.34;34.21;101788.53;5043132;27;97981;-78
2022/06/11 05:32:40;;;;;;;5.75;1.75;;;;;;;26.45;34.10;101793.88;5049482;27;96959;-77
2022/06/11 05:35:10;;;;;;;9.25;2.00;;;;;;;26.48;35.34;101795.47;5042548;27;99032;-77
2022/06/11 05:37:38;;;;;;;7.60;2.05;;;;;;;26.84;33.50;101797.72;5043558;27;99206;-78
2022/06/11 05:40:07;;;;;;;5.10;1.90;;;;;;;26.84;33.48;101795.00;5054077;27;96743;-78
2022/06/11 05:42:34;;;;;;;11.45;2.67;;;;;;;26.75;33.62;101794.94;5039754;27;96881;-78
2022/06/11 05:45:01;;;;;;;3.42;1.80;;;;;;;26.74;33.75;101790.50;5048407;27;97601;-76
2022/06/11 05:47:29;;;;;;;4.63;1.73;;;;;;;26.82;33.38;101785.28;5049043;27;98846;-79
2022/06/11 05:50:01;;;;;;;8.63;2.03;;;;;;;26.79;33.20;101796.38;5041095;27;96902;-78
2022/06/11 05:52:32;;;;;;;11.68;2.78;;;;;;;26.95;33.08;101799.50;5051791;27;97199;-79
2022/06/11 05:55:01;;;;;;;9.77;2.10;;;;;;;26.90;33.57;101797.22;5047516;27;97761;-77
2022/06/11 05:57:28;;;;;;;4.63;1.77;;;;;;;26.95;33.67;101794.09;5047044;27;98916;-77
2022/06/11 06:00:00;;;;;;;9.93;2.08;;;;;;;27.26;33.11;101792.22;5050333;27;97520;-78
2022/06/11 06:02:28;;;;;;;6.68;1.90;;;;;;;27.35;33.21;101794.97;5051079;27;96828;-77
2022/06/11 06:04:55;;;;;;;4.75;2.35;;;;;;;27.52;33.14;101793.47;5041944;27;101926;-77
2022/06/11 06:07:22;;;;;;;8.35;1.98;;;;;;;27.11;33.37;101793.59;5044445;27;99131;-77
2022/06/11 06:09:51;;;;;;;5.30;1.80;;;;;;;27.36;32.61;101793.13;5050502;27;96731;-77
2022/06/11 06:12:19;;;;;;;5.75;1.83;;;;;;;27.42;33.13;101797.16;5054020;27;96839;-82
2022/06/11 06:14:46;;;;;;;11.55;2.10;;;;;;;27.63;32.80;101785.25;5048734;27;98894;-81
2022/06/11 06:17:12;;;;;;;8.85;2.50;;;;;;;27.59;32.43;101788.34;5047345;27;99199;-83
2022/06/11 06:19:39;;;;;;;10.65;2.45;;;;;;;27.55;32.57;101792.34;5054228;27;97351;-81
2022/06/11 06:22:05;;;;;;;8.85;2.20;;;;;;;27.54;32.41;101790.63;5056769;27;96915;-83
2022/06/11 06:24:35;;;;;;;8.73;2.15;;;;;;;27.28;32.79;101792.94;5054645;27;98471;-81
2022/06/11 06:27:01;;;;;;;4.68;2.05;;;;;;;27.49;31.91;101793.75;5053205;27;98082;-83
2022/06/11 06:29:30;;;;;;;9.27;2.33;;;;;;;27.73;31.90;101788.81;5054027;27;96753;-81
2022/06/11 06:31:58;;;;;;;6.95;1.83;;;;;;;27.81;32.13;101782.69;5050616;27;97222;-82
2022/06/11 06:34:25;;;;;;;7.53;1.85;;;;;;;28.00;31.83;101787.28;5049653;27;98953;-83
2022/06/11 06:36:52;;;;;;;5.63;1.77;;;;;;;28.10;31.30;101796.28;5058811;27;99333;-82
2022/06/11 06:39:18;;;;;;;12.60;1.98;;;;;;;28.00;31.69;101798.16;5046087;27;96839;-82
2022/06/11 06:41:46;;;;;;;5.85;1.80;;;;;;;28.07;31.62;101793.84;5053723;27;97475;-83
2022/06/11 06:44:16;;;;;;;4.38;1.90;;;;;;;28.06;31.37;101794.84;5044898;27;99260;-82
2022/06/11 06:46:44;;;;;;;6.90;2.13;;;;;;;28.14;31.45;101790.47;5057961;27;100865;-82
2022/06/11 06:49:11;;;;;;;8.15;1.98;;;;;;;28.11;31.74;101788.00;5053468;27;96792;-81
2022/06/11 06:51:37;;;;;;;5.70;1.80;;;;;;;28.04;31.49;101800.44;5055484;27;96864;-83
2022/06/11 06:54:04;;;;;;;5.72;1.67;;;;;;;28.36;31.26;101796.59;5050575;27;101465;-82
2022/06/11 06:56:33;;;;;;;4.30;1.50;;;;;;;28.04;31.85;101799.56;5045517;27;98780;-82
2022/06/11 06:59:00;;;;;;;9.38;2.15;;;;;;;28.29;31.80;101796.31;5047897;27;96895;-82
2022/06/11 07:01:27;;;;;;;5.18;2.03;;;;;;;28.19;31.71;101800.03;5047031;27;97210;-82
2022/06/11 07:03:59;;;;;;;6.13;1.92;;;;;;;28.30;31.17;101795.31;5052480;27;97869;-83
2022/06/11 07:06:26;;;;;;;9.63;1.77;;;;;;;28.19;31.63;101800.91;5053247;27;98191;-83
2022/06/11 07:08:57;;;;;;;8.65;2.30;;;;;;;28.61;31.35;101789.72;5060585;27;96854;-82
2022/06/11 07:11:23;;;;;;;5.55;1.73;;;;;;;28.78;31.27;101794.41;5054281;27;97181;-85
2022/06/11 07:13:50;;;;;;;5.35;1.95;;;;;;;28.94;31.12;101791.94;5048767;27;98354;-79
2022/06/11 07:16:22;;;;;;;3.50;1.48;;;;;;;28.66;31.74;101793.69;5044314;27;101529;-80
2022/06/11 07:18:53;;;;;;;6.88;1.80;;;;;;;28.78;31.74;101792.56;5046505;27;96962;-81
2022/06/11 07:21:25;;;;;;;4.72;1.58;;;;;;;28.90;30.81;101779.63;5051811;27;97215;-80
2022/06/11 07:23:55;;;;;;;4.68;1.67;;;;;;;28.97;30.45;101783.47;5049738;27;98930;-79
2022/06/11 07:26:28;;;;;;;6.80;2.08;;;;;;;28.99;30.69;101786.06;5049321;27;99046;-78
2022/06/11 07:29:01;;;;;;;5.05;1.80;;;;;;;28.73;30.75;101786.66;5047753;27;96741;-79
2022/06/11 07:31:30;;;;;;;6.60;2.13;;;;;;;28.79;30.96;101786.13;5044967;27;97060;-79
2022/06/11 07:33:57;;;;;;;7.78;1.88;;;;;;;29.08;30.49;101775.09;5052404;27;97889;-79
2022/06/11 07:36:28;;;;;;;6.97;1.90;;;;;;;29.17;30.38;101782.38;5043027;27;99202;-78
2022/06/11 07:38:55;;;;;;;9.23;2.28;;;;;;;29.11;30.50;101782.13;5045103;27;96975;-77
2022/06/11 07:41:22;;;;;;;6.20;1.88;;;;;;;29.53;30.14;101769.78;5051810;27;97087;-79
2022/06/11 07:43:48;;;;;;;7.03;1.90;;;;;;;29.37;30.02;101779.59;5045249;27;101970;-79
2022/06/11 07:46:15;;;;;;;8.07;2.00;;;;;;;29.65;30.51;101779.44;5045994;27;98977;-78
2022/06/11 07:48:42;;;;;;;10.43;2.50;;;;;;;29.37;30.66;101774.16;5046608;27;96910;-78
2022/06/11 07:51:12;;;;;;;6.15;1.90;;;;;;;29.17;30.34;101773.38;5046724;27;97619;-80
2022/06/11 07:53:40;;;;;;;6.20;1.85;;;;;;;29.36;30.29;101777.88;5046398;27;98842;-79
2022/06/11 07:56:07;;;;;;;3.80;1.85;;;;;;;29.35;30.29;101782.47;5042057;27;98901;-80
2022/06/11 07:58:33;;;;;;;7.32;2.28;;;;;;;29.69;30.05;101779.97;5049674;27;97271;-80
2022/06/11 08:01:01;;;;;;;5.80;2.03;;;;;;;29.55;30.02;101773.19;5048279;27;97230;-78
2022/06/11 08:03:31;;;;;;;6.43;1.60;;;;;;;29.30;29.86;101777.44;5041101;27;99307;-79
2022/06/11 08:06:02;;;;;;;4.28;1.60;;;;;;;29.63;29.03;101773.28;5052863;27;101312;-81
2022/06/11 08:08:28;;;;;;;8.32;2.00;;;;;;;29.55;29.20;101777.78;5044691;27;97272;-80
2022/06/11 08:10:57;;;;;;;3.78;1.30;;;;;;;29.64;28.63;101779.59;5053041;27;96864;-79
2022/06/11 08:13:23;;;;;;;7.82;1.60;;;;;;;29.89;28.80;101780.69;5044301;27;98188;-81
2022/06/11 08:15:51;;;;;;;8.07;1.98;;;;;;;30.38;27.78;101784.78;5037393;27;97857;-80
2022/06/11 08:18:22;;;;;;;3.80;1.80;;;;;;;30.43;27.68;101777.81;5046084;27;97165;-79
2022/06/11 08:20:49;;;;;;;6.20;1.55;;;;;;;30.01;27.75;101766.72;5051778;27;97512;-81
2022/06/11 08:23:16;;;;;;;3.42;1.48;;;;;;;30.52;26.76;101770.59;5048162;27;98933;-81
2022/06/11 08:25:43;;;;;;;7.95;1.50;;;;;;;30.49;27.75;101774.50;5054156;27;101372;-80
2022/06/11 08:28:21;;;;;;;8.50;1.92;;;;;;;30.61;26.74;101774.22;5050118;27;97204;-80
2022/06/11 08:30:50;;;;;;;5.63;1.88;;;;;;;31.02;26.38;101767.16;5050837;27;97081;-79
2022/06/11 08:33:20;;;;;;;11.50;1.80;;;;;;;31.19;25.88;101769.81;5046024;27;98327;-79
2022/06/11 08:35:47;;;;;;;4.03;1.75;;;;;;;30.75;26.13;101770.91;5044171;27;97656;-80
2022/06/11 08:38:14;;;;;;;5.05;1.63;;;;;;;31.42;25.62;101764.63;5044958;27;97038;-79
2022/06/11 08:40:44;;;;;;;7.82;1.83;;;;;;;31.37;25.97;101763.41;5044738;27;98889;-79
2022/06/11 08:43:22;;;;;;;7.35;2.00;;;;;;;31.34;26.38;101770.06;5045444;27;97404;-80
2022/06/11 08:45:51;;;;;;;6.00;2.10;;;;;;;31.40;25.62;101760.34;5044927;27;98153;-79
2022/06/11 08:48:43;;;;;;;3.20;1.35;;;;;;;31.46;25.60;101760.53;5043478;27;98425;-82
2022/06/11 08:51:18;;;;;;;4.90;1.38;;;;;;;31.38;25.66;101762.38;5047458;27;98407;-80
2022/06/11 08:53:45;;;;;;;5.65;1.70;;;;;;;31.46;26.26;101757.81;5038396;27;98760;-80
2022/06/11 08:56:19;;;;;;;3.45;1.45;;;;;;;31.21;26.37;101765.06;5044893;27;99007;-81
2022/06/11 08:59:03;;;;;;;5.65;1.50;;;;;;;31.04;25.41;101763.25;5040452;27;97293;-79
2022/06/11 09:01:39;;;;;;;9.65;1.33;;;;;;;31.40;25.24;101752.16;5047734;27;97345;-79
2022/06/11 09:04:22;;;;;;;4.32;1.20;;;;;;;31.95;25.04;101755.22;5038281;27;100663;-80
2022/06/11 09:07:24;;;;;;;5.25;1.40;;;;;;;31.71;24.93;101749.69;5045701;27;99992;-81
2022/06/11 09:10:07;;;;;;;4.28;1.30;;;;;;;31.66;25.24;101753.78;5044812;27;98307;-78
2022/06/11 09:13:05;;;;;;;3.30;1.17;;;;;;;31.63;25.09;101753.28;5051301;27;97089;-81
2022/06/11 09:15:46;;;;;;;4.53;1.27;;;;;;;31.66;25.43;101751.06;5045597;27;98857;-80
2022/06/11 09:18:33;;;;;;;4.03;1.25;;;;;;;31.74;25.24;101747.50;5046660;27;99472;-79
2022/06/11 09:21:13;;;;;;;7.18;1.75;;;;;;;31.62;25.68;101744.22;5036584;27;97591;-80
2022/06/11 09:24:03;;;;;;;3.78;1.65;;;;;;;31.62;25.59;101752.44;5051665;27;98430;-84
2022/06/11 09:26:43;;;;;;;5.57;1.38;;;;;;;31.87;24.81;101742.38;5042048;27;98286;-83
2022/06/11 09:29:17;;;;;;;8.57;2.15;;;;;;;32.18;25.10;101739.84;5046351;27;97613;-77
2022/06/11 09:31:48;;;;;;;4.88;1.77;;;;;;;31.83;25.33;101743.75;5046212;27;98980;-79
2022/06/11 09:34:19;;;;;;;4.68;1.70;;;;;;;32.09;24.46;101742.75;5050414;27;98599;-78
2022/06/11 09:36:55;;;;;;;4.25;1.60;;;;;;;32.00;25.19;101744.63;5050371;27;98209;-78
2022/06/11 09:39:39;;;;;;;4.28;1.48;;;;;;;32.15;25.06;101742.09;5044825;27;97625;-77
2022/06/11 09:42:21;;;;;;;6.18;1.92;;;;;;;32.09;25.03;101743.59;5048780;27;96860;-77
2022/06/11 09:44:56;;;;;;;9.15;1.60;;;;;;;32.09;25.22;101742.75;5048661;27;97137;-79
2022/06/11 09:47:29;;;;;;;2.50;1.30;;;;;;;30.67;26.33;101738.13;5043238;27;101531;-77
2022/06/11 09:50:05;;;;;;;6.50;1.80;;;;;;;31.59;25.79;101740.94;5047718;27;98087;-77
2022/06/11 09:52:40;;;;;;;4.07;1.70;;;;;;;31.91;25.30;101743.75;5047486;27;98630;-78
2022/06/11 09:55:21;;;;;;;5.38;1.38;;;;;;;31.91;24.98;101742.88;5047301;27;96877;-77
2022/06/11 09:57:55;;;;;;;3.13;1.30;;;;;;;32.26;24.34;101737.13;5048540;27;99961;-78
2022/06/11 10:00:27;;;;;;;2.45;1.20;;;;;;;32.12;24.55;101734.19;5048384;27;99026;-77
2022/06/11 10:03:07;;;;;;;4.40;1.23;;;;;;;31.75;24.94;101730.09;5039483;27;98767;-78
2022/06/11 10:05:41;;;;;;;3.45;1.45;;;;;;;31.91;24.89;101732.81;5039617;27;97148;-79
2022/06/11 10:08:18;;;;;;;1.85;1.15;;;;;;;31.80;23.92;101733.16;5037568;27;99043;-79
2022/06/11 10:10:47;;;;;;;5.07;1.20;;;;;;;31.51;23.24;101724.50;5040940;27;99005;-77
2022/06/11 10:13:29;;;;;;;1.35;0.80;;;;;;;31.52;23.66;101724.34;5046447;27;98751;-80
2022/06/11 10:15:59;;;;;;;3.17;1.00;;;;;;;31.06;24.32;101733.06;5044436;27;96844;-76
2022/06/11 10:18:31;;;;;;;3.08;0.90;;;;;;;31.69;24.40;101724.44;5042206;27;97740;-77
2022/06/11 10:21:04;;;;;;;2.97;1.10;;;;;;;31.77;23.91;101722.53;5044826;27;99276;-77
2022/06/11 10:23:36;;;;;;;4.15;1.25;;;;;;;31.36;24.48;101729.78;5043341;27;97678;-77
2022/06/11 10:26:09;;;;;;;5.75;1.20;;;;;;;31.09;24.02;101733.63;5044962;27;97688;-77
2022/06/11 10:28:40;;;;;;;3.17;0.70;;;;;;;31.21;24.26;101734.16;5040446;27;99415;-77
2022/06/11 10:31:12;;;;;;;2.03;1.35;;;;;;;30.82;24.51;101736.50;5044749;27;98785;-77
2022/06/11 10:33:48;;;;;;;3.85;0.80;;;;;;;31.16;23.59;101740.13;5044351;27;97148;-78
2022/06/11 10:36:21;;;;;;;3.67;0.80;;;;;;;31.47;23.34;101731.34;5041654;27;98220;-77
2022/06/11 10:38:55;;;;;;;2.50;1.23;;;;;;;31.39;23.87;101728.59;5040993;27;98838;-78
2022/06/11 10:41:28;;;;;;;2.47;0.93;;;;;;;31.94;23.75;101727.03;5042680;27;99022;-78
2022/06/11 10:44:06;;;;;;;2.88;1.13;;;;;;;31.75;23.82;101719.16;5039261;27;96895;-79
2022/06/11 10:46:37;;;;;;;2.22;1.00;;;;;;;31.12;24.91;101716.88;5043081;27;97166;-78
2022/06/11 10:49:12;;;;;;;4.47;1.10;;;;;;;31.44;24.29;101718.03;5039411;27;101930;-78
2022/06/11 10:51:41;;;;;;;2.80;1.00;;;;;;;32.42;23.44;101711.66;5042133;27;98519;-78
2022/06/11 10:54:15;;;;;;;2.78;1.05;;;;;;;32.45;23.61;101716.75;5044313;27;98715;-78
2022/06/11 10:56:47;;;;;;;2.90;0.85;;;;;;;32.57;23.21;101711.78;5038458;27;97135;-78
2022/06/11 10:59:22;;;;;;;2.75;1.05;;;;;;;32.23;23.49;101721.06;5038955;27;99346;-77
2022/06/11 11:01:56;;;;;;;3.38;1.00;;;;;;;32.36;23.34;101715.09;5050275;27;98934;-78
2022/06/11 11:04:36;;;;;;;3.22;1.17;;;;;;;32.18;23.69;101714.41;5045410;27;97202;-79
2022/06/11 11:07:21;;;;;;;3.22;0.98;;;;;;;32.29;23.20;101708.59;5049631;27;96949;-76
2022/06/11 11:09:48;;;;;;;11.32;1.55;;;;;;;32.50;23.43;101713.50;5043904;27;98153;-77
